To NAV CANADA Home Page Login to a new session Search on AWWS site Disclaimer Vers la page française équivalente Tips FAQ What's new on the site To the Forecasts and Observations / NOTAM section To "File a Flight Plan" website Publications and other links Update of the User's profile FIC Telephone Numbers My Weather Data Folder Route Weather Data Regional Weather Data Local Weather Data To the Forecasts and Observations / NOTAM section
Request Generated 11/13/2018 at 18:03:28 UTC . Weather information available at that time is displayed.

METAR/TAF

SMITHERS/BC    (show WxCam)

METAR CYYD 131800Z 15010G16KT 25SM FEW030 SCT060 BKN090 BKN180 01/M01 A2989 RMK SF1SC2AC2AC2 SLP142=
SPECI CYYD 131719Z 16013G18KT 25SM SCT050 OVC090 01/M01 A2989 RMK SC4AC4 SLP144=
METAR CYYD 131700Z 16012KT 25SM -SN BKN050 OVC090 01/M01 A2990 RMK SC6AC2 SLP145=
SPECI CYYD 131613Z 17013G21KT 25SM -SN BKN050 OVC090 01/M02 A2990 RMK SC5AC3 SLP146=
METAR CYYD 131600Z 15013G20KT 25SM FEW055 BKN090 OVC230 00/M02 A2990 RMK SC2AC4CI2 PRESFR SLP146=

TAF CYYD 131338Z 1314/1402 13005KT P6SM BKN210
FM131600 16008KT P6SM BKN080 OVC200 TEMPO 1316/1321 3SM -SN
SCT020 BKN040
FM132100 16010KT P6SM SCT060
RMK FCST BASED ON AUTO OBS. NXT FCST BY 131900Z=
Your time UTC time
Weather data provided by Environment Canada and NAV CANADA